Time;durP1;ratioP1;P1;durP2;ratioP2;P2;SDS_P1;SDS_P2;PMS_P1;PMS_P2;Temp;Humidity;BMP_temperature;BMP_pressure;BME280_temperature;BME280_humidity;BME280_pressure;Samples;Min_cycle;Max_cycle;Signal;HPM_P1;HPM_P2
2021/12/13 00:01:02;;;;;;;1.23;1.00;;;;;;;9.01;51.07;96264.47;5011967;28;20072;-65
2021/12/13 00:03:38;;;;;;;1.38;1.13;;;;;;;9.01;50.20;96267.91;5011449;28;20021;-64
2021/12/13 00:06:11;;;;;;;1.75;0.93;;;;;;;8.52;51.57;96275.56;5012042;28;20487;-64
2021/12/13 00:08:42;;;;;;;1.27;1.17;;;;;;;8.18;51.36;96278.63;5011753;28;20499;-64
2021/12/13 00:11:11;;;;;;;2.80;1.05;;;;;;;7.17;53.86;96205.63;5011435;28;20472;-66
2021/12/13 00:13:50;;;;;;;1.38;0.95;;;;;;;7.70;52.83;96198.47;5013139;28;20038;-66
2021/12/13 00:16:27;;;;;;;2.28;1.02;;;;;;;8.17;52.53;96242.56;5011600;28;20026;-64
2021/12/13 00:18:58;;;;;;;0.93;0.77;;;;;;;7.38;54.62;96195.16;5011483;28;20030;-66
2021/12/13 00:21:37;;;;;;;1.00;0.80;;;;;;;7.40;54.23;96203.63;5011346;28;20071;-66
2021/12/13 00:24:11;;;;;;;1.55;0.98;;;;;;;7.34;54.74;96183.47;5011561;28;20611;-65
2021/12/13 00:26:45;;;;;;;2.08;0.77;;;;;;;7.62;54.56;96188.34;5011623;28;20384;-65
2021/12/13 00:29:15;;;;;;;1.83;0.95;;;;;;;7.55;54.79;96206.34;5014064;28;20067;-65
2021/12/13 00:31:50;;;;;;;3.17;1.17;;;;;;;8.57;53.34;96265.75;5010857;28;20030;-66
2021/12/13 00:34:27;;;;;;;1.73;0.80;;;;;;;8.34;54.33;96267.03;5011395;28;20383;-66
2021/12/13 00:37:07;;;;;;;1.00;0.90;;;;;;;7.92;54.22;96195.59;5011272;28;20109;-64
2021/12/13 00:39:47;;;;;;;1.67;1.30;;;;;;;8.35;55.09;96273.13;5010832;28;20088;-64
2021/12/13 00:42:14;;;;;;;2.17;1.27;;;;;;;8.04;54.43;96184.78;5010696;28;20096;-64
2021/12/13 00:44:45;;;;;;;1.48;0.80;;;;;;;7.34;56.88;96157.81;5020842;28;20519;-63
2021/12/13 00:47:17;;;;;;;1.33;1.23;;;;;;;8.40;56.16;96275.81;5012640;28;20029;-67
2021/12/13 00:49:48;;;;;;;1.50;1.05;;;;;;;8.01;55.63;96180.81;5010694;28;20057;-64
2021/12/13 00:52:16;;;;;;;0.90;0.90;;;;;;;7.50;56.51;96191.22;5009503;28;20061;-65
2021/12/13 00:54:43;;;;;;;1.20;0.80;;;;;;;7.59;56.38;96188.88;5010928;28;20340;-64
2021/12/13 00:57:38;;;;;;;2.97;0.98;;;;;;;8.87;55.10;96247.50;5010858;28;20022;-64
2021/12/13 01:00:12;;;;;;;2.65;1.05;;;;;;;8.90;54.65;96281.44;5013997;28;20026;-65
2021/12/13 01:02:43;;;;;;;1.35;0.90;;;;;;;7.20;57.64;96175.19;5010409;28;20034;-64
2021/12/13 01:05:15;;;;;;;2.05;1.00;;;;;;;7.94;57.30;96203.31;5010869;28;20034;-64
2021/12/13 01:08:15;;;;;;;2.70;1.10;;;;;;;8.02;58.09;96283.06;5010821;28;20033;-66
2021/12/13 01:11:08;;;;;;;1.35;1.10;;;;;;;8.21;58.51;96286.06;5010437;28;20069;-64
2021/12/13 01:13:40;;;;;;;1.80;1.10;;;;;;;7.17;59.95;96205.63;5010508;28;20380;-66
2021/12/13 01:16:37;;;;;;;1.40;1.08;;;;;;;7.70;59.20;96214.34;5012897;28;20032;-64
2021/12/13 01:19:24;;;;;;;2.65;1.10;;;;;;;7.68;59.63;96219.13;5009824;28;20050;-64
2021/12/13 01:22:12;;;;;;;2.05;1.17;;;;;;;7.49;61.53;96276.19;5010187;28;20562;-65
2021/12/13 01:25:15;;;;;;;1.48;0.90;;;;;;;7.27;60.03;96220.75;5010712;28;20026;-67
2021/12/13 01:27:43;;;;;;;1.35;1.00;;;;;;;7.72;58.72;96216.72;5010002;28;20034;-66
2021/12/13 01:30:23;;;;;;;2.50;1.00;;;;;;;7.85;59.38;96263.16;5010133;28;20431;-66
2021/12/13 01:32:53;;;;;;;1.73;0.98;;;;;;;7.06;60.80;96209.22;5009626;28;20099;-64
2021/12/13 01:35:23;;;;;;;1.30;1.20;;;;;;;8.28;58.93;96225.63;5010876;28;20026;-64
2021/12/13 01:37:53;;;;;;;1.50;1.00;;;;;;;9.08;58.03;96318.06;5010194;28;20026;-66
2021/12/13 01:40:22;;;;;;;1.10;1.10;;;;;;;8.79;57.93;96241.63;5010041;28;20061;-64
2021/12/13 01:42:59;;;;;;;1.30;1.17;;;;;;;8.50;58.09;96220.16;5009509;28;20065;-64
2021/12/13 01:45:26;;;;;;;2.00;1.15;;;;;;;7.63;59.97;96234.19;5009798;28;20064;-64
2021/12/13 01:47:53;;;;;;;2.13;1.30;;;;;;;7.06;62.30;96235.69;5010070;28;20554;-64
2021/12/13 01:50:24;;;;;;;1.73;1.13;;;;;;;8.76;60.12;96311.16;5009878;28;20488;-64
2021/12/13 01:52:53;;;;;;;3.10;1.20;;;;;;;9.06;58.82;96307.72;5009890;28;20097;-64
2021/12/13 01:55:36;;;;;;;3.90;1.63;;;;;;;8.32;60.73;96290.34;5010149;28;20037;-64
2021/12/13 02:01:10;;;;;;;7.10;1.15;;;;;;;7.96;61.33;96302.66;5016450;28;20025;-64
2021/12/13 02:03:47;;;;;;;;;;;;;;;8.40;60.93;96320.09;5003646;28;20108;-64
2021/12/13 02:06:21;;;;;;;1.50;1.33;;;;;;;8.76;59.60;96311.16;5008646;28;20295;-64
2021/12/13 02:08:53;;;;;;;1.38;1.25;;;;;;;8.08;60.25;96236.19;5010011;28;20040;-66
2021/12/13 02:11:20;;;;;;;1.70;1.60;;;;;;;9.17;59.74;96303.22;5009567;28;20029;-64
2021/12/13 02:14:05;;;;;;;2.90;1.38;;;;;;;8.81;59.42;96316.47;5011322;28;20037;-64
2021/12/13 02:17:07;;;;;;;1.40;1.33;;;;;;;8.44;61.29;96302.59;5002771;28;20022;-65
2021/12/13 02:20:00;;;;;;;1.40;1.30;;;;;;;8.52;60.63;96316.13;5009331;28;20037;-64
2021/12/13 02:22:35;;;;;;;2.60;1.58;;;;;;;8.80;59.65;96314.06;5009555;28;20087;-65
2021/12/13 02:25:14;;;;;;;2.63;1.92;;;;;;;8.72;59.80;96245.63;5009772;28;20427;-65
2021/12/13 02:27:43;;;;;;;5.60;1.60;;;;;;;8.36;58.94;96191.72;5009489;28;20045;-64
2021/12/13 02:30:18;;;;;;;1.70;1.60;;;;;;;9.19;59.25;96314.34;5010854;28;20022;-65
2021/12/13 02:32:45;;;;;;;2.25;1.75;;;;;;;8.90;59.53;96266.31;5011680;28;20058;-65
2021/12/13 02:35:11;;;;;;;2.28;1.40;;;;;;;8.79;60.58;96325.72;5009587;28;20061;-65
2021/12/13 02:37:39;;;;;;;2.17;1.50;;;;;;;9.14;60.14;96317.00;5009604;28;20053;-64
2021/12/13 02:40:07;;;;;;;3.30;1.25;;;;;;;8.50;60.73;96306.88;5009064;28;20060;-65
2021/12/13 02:42:34;;;;;;;1.90;1.38;;;;;;;8.42;61.36;96323.28;5009180;28;20053;-66
2021/12/13 02:45:15;;;;;;;2.65;1.65;;;;;;;7.76;63.44;96307.84;5013880;28;20109;-65
2021/12/13 02:48:08;;;;;;;2.20;1.52;;;;;;;8.31;62.24;96315.25;5012156;28;20026;-66
2021/12/13 02:50:51;;;;;;;2.30;2.00;;;;;;;8.27;62.33;96318.69;4989277;28;20049;-66
2021/12/13 02:53:22;;;;;;;2.95;1.90;;;;;;;8.61;61.10;96321.72;4993619;28;20053;-66
2021/12/13 02:55:48;;;;;;;3.58;2.55;;;;;;;9.33;60.08;96290.72;4993422;28;20026;-66
2021/12/13 02:58:16;;;;;;;3.22;2.08;;;;;;;8.87;59.75;96296.03;4996998;28;20033;-66
2021/12/13 03:00:49;;;;;;;4.05;3.30;;;;;;;8.70;60.33;96308.72;5018387;28;20079;-66
2021/12/13 03:03:19;;;;;;;3.72;3.30;;;;;;;8.66;60.94;96300.53;5014472;28;20022;-66
2021/12/13 03:05:49;;;;;;;4.55;3.83;;;;;;;8.95;60.18;96199.19;5013099;28;20034;-66
2021/12/13 03:08:20;;;;;;;3.78;3.20;;;;;;;8.79;59.89;96297.34;5013202;28;20026;-66
2021/12/13 03:10:50;;;;;;;3.30;3.00;;;;;;;8.58;60.36;96245.34;5012619;28;20030;-66
2021/12/13 03:13:18;;;;;;;5.05;3.75;;;;;;;8.84;59.57;96317.78;5012378;28;20029;-66
2021/12/13 03:16:04;;;;;;;4.55;3.78;;;;;;;9.27;59.73;96321.00;5016841;28;20064;-66
2021/12/13 03:18:41;;;;;;;5.35;3.60;;;;;;;8.99;59.81;96331.06;4993429;28;20484;-65
2021/12/13 03:21:34;;;;;;;4.47;3.90;;;;;;;9.27;60.21;96321.81;4993208;28;20065;-65
2021/12/13 03:24:09;;;;;;;4.25;3.85;;;;;;;9.31;59.68;96322.84;4993415;28;20080;-65
2021/12/13 03:26:57;;;;;;;5.07;3.83;;;;;;;9.42;58.93;96298.94;4993372;28;20482;-64
2021/12/13 03:30:00;;;;;;;3.22;2.92;;;;;;;9.54;58.38;96318.84;5011561;28;20116;-65
2021/12/13 03:33:05;;;;;;;3.47;2.78;;;;;;;9.11;59.81;96318.34;5008217;28;20037;-66
2021/12/13 03:35:36;;;;;;;3.28;2.90;;;;;;;9.70;59.62;96308.97;4990410;28;20365;-65
2021/12/13 03:38:25;;;;;;;4.03;3.15;;;;;;;9.41;58.83;96289.38;4991804;28;20465;-64
2021/12/13 03:40:51;;;;;;;5.50;3.20;;;;;;;10.05;59.15;96297.47;4992462;28;20431;-64
2021/12/13 03:43:24;;;;;;;5.82;2.60;;;;;;;9.94;57.99;96316.38;4994857;28;20023;-65
2021/12/13 03:45:56;;;;;;;2.90;2.70;;;;;;;9.43;59.29;96297.88;5014645;28;20128;-67
2021/12/13 03:48:25;;;;;;;4.55;2.97;;;;;;;9.28;59.79;96288.06;5011968;28;20018;-68
2021/12/13 03:50:56;;;;;;;3.03;2.55;;;;;;;8.93;60.76;96302.94;5011791;28;20036;-65
2021/12/13 03:53:25;;;;;;;5.60;3.30;;;;;;;9.29;60.98;96306.38;5012039;28;20026;-66
2021/12/13 03:56:02;;;;;;;4.15;2.90;;;;;;;8.87;61.37;96293.38;5010346;28;20030;-65
2021/12/13 03:58:30;;;;;;;3.03;2.83;;;;;;;9.84;60.09;96304.69;5011708;28;20033;-66
2021/12/13 04:01:00;;;;;;;2.70;2.50;;;;;;;9.81;58.92;96320.38;5011386;28;20100;-67
2021/12/13 04:03:28;;;;;;;2.70;2.50;;;;;;;9.59;59.23;96323.34;5002622;28;20387;-67
2021/12/13 04:05:55;;;;;;;3.83;2.80;;;;;;;9.82;59.48;96314.78;5012192;28;20026;-67
2021/12/13 04:08:22;;;;;;;3.15;2.53;;;;;;;9.23;60.08;96319.94;5011896;28;20089;-66
2021/12/13 04:10:59;;;;;;;3.03;2.65;;;;;;;9.24;60.64;96318.88;5011686;28;20534;-67
2021/12/13 04:13:29;;;;;;;2.40;2.20;;;;;;;9.22;60.98;96321.81;5009891;28;20034;-67
2021/12/13 04:16:09;;;;;;;3.15;2.88;;;;;;;9.04;61.17;96324.97;5011709;28;20544;-66
2021/12/13 04:19:06;;;;;;;2.38;2.17;;;;;;;8.73;62.53;96321.47;4992223;28;20022;-66
2021/12/13 04:21:39;;;;;;;4.35;2.90;;;;;;;8.50;63.05;96336.03;4991869;28;20026;-66
2021/12/13 04:24:09;;;;;;;5.57;4.28;;;;;;;8.93;62.39;96336.63;4992025;28;20400;-66
2021/12/13 04:26:49;;;;;;;3.15;2.85;;;;;;;8.46;63.36;96319.03;5007265;28;20076;-66
2021/12/13 04:29:28;;;;;;;2.95;2.60;;;;;;;8.66;63.01;96326.25;4999894;28;20061;-66
2021/12/13 04:31:55;;;;;;;2.97;2.60;;;;;;;8.57;62.90;96318.81;5014783;28;20022;-66
2021/12/13 04:34:24;;;;;;;2.92;2.17;;;;;;;8.12;65.13;96353.06;5011317;28;20033;-67
2021/12/13 04:36:52;;;;;;;2.90;2.58;;;;;;;8.03;65.03;96305.06;5010150;28;20040;-66
2021/12/13 04:39:35;;;;;;;3.10;2.47;;;;;;;8.72;63.31;96322.53;5010988;28;20080;-67
2021/12/13 04:42:03;;;;;;;;;;;;;;;8.92;63.25;96332.41;5010207;28;20026;-64
2021/12/13 04:44:38;;;;;;;3.47;2.78;;;;;;;8.99;62.99;96330.28;5011359;28;20339;-66
2021/12/13 04:47:10;;;;;;;4.05;3.65;;;;;;;8.58;63.38;96328.34;5015027;28;20022;-66
2021/12/13 04:49:41;;;;;;;4.60;3.85;;;;;;;9.26;62.26;96330.81;5010979;28;20029;-66
2021/12/13 04:52:13;;;;;;;4.13;3.72;;;;;;;8.70;63.00;96346.69;5010649;28;20025;-66
2021/12/13 04:54:41;;;;;;;4.97;4.47;;;;;;;9.05;63.27;96318.59;5011367;28;20024;-66
2021/12/13 04:57:07;;;;;;;4.10;3.70;;;;;;;9.04;62.92;96351.50;5011127;28;20030;-67
2021/12/13 04:59:33;;;;;;;3.95;3.65;;;;;;;9.43;61.54;96346.47;5010554;28;20018;-66
2021/12/13 05:02:03;;;;;;;9.27;4.55;;;;;;;9.52;61.28;96338.75;5013750;28;20030;-67
2021/12/13 05:04:30;;;;;;;3.97;3.25;;;;;;;9.87;61.48;96344.00;5009882;28;20026;-66
2021/12/13 05:06:58;;;;;;;5.55;4.03;;;;;;;9.15;61.87;96323.91;5010683;28;20069;-67
2021/12/13 05:09:25;;;;;;;3.90;3.60;;;;;;;10.32;60.35;96352.94;5010240;28;20646;-66
2021/12/13 05:11:55;;;;;;;3.58;3.28;;;;;;;10.75;60.65;96360.44;5010596;28;20026;-67
2021/12/13 05:14:34;;;;;;;3.53;3.22;;;;;;;10.07;60.13;96303.28;5009513;28;20026;-68
2021/12/13 05:17:21;;;;;;;4.15;3.75;;;;;;;10.43;59.81;96355.56;5010917;28;20116;-67
2021/12/13 05:19:53;;;;;;;5.50;4.07;;;;;;;10.27;59.49;96331.69;5011057;28;20053;-67
2021/12/13 05:22:20;;;;;;;4.43;4.00;;;;;;;9.94;59.86;96343.75;5010283;28;20084;-67
2021/12/13 05:24:53;;;;;;;4.20;3.80;;;;;;;10.24;59.46;96371.34;5010724;28;20057;-66
2021/12/13 05:27:37;;;;;;;4.45;4.05;;;;;;;9.91;59.81;96376.16;5010390;28;20117;-67
2021/12/13 05:30:21;;;;;;;4.70;4.15;;;;;;;9.27;61.73;96380.22;5013434;28;20033;-66
2021/12/13 05:32:50;;;;;;;5.82;4.35;;;;;;;9.78;61.33;96350.16;5010129;28;20037;-67
2021/12/13 05:35:24;;;;;;;4.18;3.78;;;;;;;9.79;60.05;96371.16;5010298;28;20104;-66
2021/12/13 05:37:53;;;;;;;4.78;4.15;;;;;;;10.50;59.44;96372.03;5010178;28;20088;-66
2021/12/13 05:40:41;;;;;;;5.40;4.90;;;;;;;10.19;59.10;96374.00;5010021;28;20729;-67
2021/12/13 05:43:24;;;;;;;5.10;4.70;;;;;;;10.47;58.96;96376.03;5009848;28;20026;-67
2021/12/13 05:45:58;;;;;;;6.15;5.35;;;;;;;10.88;58.73;96379.28;5013501;28;20041;-65
2021/12/13 05:48:47;;;;;;;5.15;4.65;;;;;;;10.22;60.11;96368.13;5009784;28;20113;-67
2021/12/13 05:51:19;;;;;;;5.70;5.10;;;;;;;10.60;59.17;96369.34;5008633;28;20026;-67
2021/12/13 05:53:46;;;;;;;5.72;4.97;;;;;;;10.93;59.01;96365.16;5010105;28;20029;-67
2021/12/13 05:56:17;;;;;;;6.97;5.45;;;;;;;10.18;59.45;96372.38;5008649;28;20424;-67
2021/12/13 05:58:48;;;;;;;5.22;4.72;;;;;;;10.45;59.72;96374.72;5009408;28;20033;-67
2021/12/13 06:01:19;;;;;;;7.05;5.75;;;;;;;10.57;59.35;96370.66;5012890;28;20025;-66
2021/12/13 06:03:51;;;;;;;5.32;4.82;;;;;;;10.31;58.86;96363.88;5008269;28;20029;-68
2021/12/13 06:06:22;;;;;;;5.18;4.28;;;;;;;9.96;60.13;96325.66;5009855;28;20380;-66
2021/12/13 06:08:52;;;;;;;6.35;5.32;;;;;;;9.73;59.59;96297.03;5008869;28;20026;-67
2021/12/13 06:11:23;;;;;;;5.72;5.20;;;;;;;10.46;59.23;96353.16;5009819;28;20022;-67
2021/12/13 06:13:55;;;;;;;6.05;5.45;;;;;;;10.76;59.17;96378.84;5009413;28;20025;-69
2021/12/13 06:16:24;;;;;;;5.20;4.70;;;;;;;9.47;61.98;96373.28;5009742;28;20018;-68
2021/12/13 06:18:58;;;;;;;6.43;5.82;;;;;;;10.16;60.99;96380.63;5009579;28;20026;-66
2021/12/13 06:21:33;;;;;;;8.25;6.53;;;;;;;10.97;60.04;96379.50;5009525;28;20357;-66
2021/12/13 06:24:00;;;;;;;5.20;4.72;;;;;;;10.55;59.16;96324.94;5011246;28;20287;-65
2021/12/13 06:26:28;;;;;;;4.30;3.42;;;;;;;11.31;59.15;96376.06;5010050;28;20018;-65
2021/12/13 06:28:57;;;;;;;4.78;3.30;;;;;;;11.37;58.27;96367.00;5010027;28;20034;-66
2021/12/13 06:31:33;;;;;;;4.60;3.33;;;;;;;11.25;58.17;96369.19;5004357;28;20127;-66
2021/12/13 06:34:03;;;;;;;3.60;3.30;;;;;;;11.45;57.22;96366.38;5013203;28;20484;-65
2021/12/13 06:36:41;;;;;;;4.68;2.63;;;;;;;11.66;57.38;96369.66;5010222;28;20026;-66
2021/12/13 06:39:14;;;;;;;2.40;2.20;;;;;;;11.79;56.46;96363.69;5007831;28;20070;-67
2021/12/13 06:41:47;;;;;;;4.18;2.90;;;;;;;11.90;56.60;96364.41;5007787;28;20489;-67
2021/12/13 06:44:17;;;;;;;2.38;2.25;;;;;;;12.18;56.16;96378.78;5008741;28;20028;-67
2021/12/13 06:46:52;;;;;;;3.33;2.88;;;;;;;12.11;55.59;96365.00;5013133;28;20041;-68
2021/12/13 06:49:35;;;;;;;3.72;2.70;;;;;;;10.96;57.86;96385.13;4999690;28;20018;-69
2021/12/13 06:52:12;;;;;;;4.32;2.00;;;;;;;9.20;63.29;96406.19;5008477;28;20018;-68
2021/12/13 06:54:44;;;;;;;5.20;2.30;;;;;;;9.20;62.67;96406.19;5009125;28;20076;-66
2021/12/13 06:57:31;;;;;;;3.10;2.80;;;;;;;9.19;63.42;96403.81;5009251;28;20030;-68
2021/12/13 07:00:19;;;;;;;3.70;2.67;;;;;;;8.94;64.52;96412.53;4988490;28;20030;-68
2021/12/13 07:03:18;;;;;;;4.65;3.33;;;;;;;8.55;64.63;96389.88;4990956;28;20516;-66
2021/12/13 07:05:47;;;;;;;4.43;3.83;;;;;;;8.53;65.84;96399.13;5007247;28;20072;-64
2021/12/13 07:08:26;;;;;;;5.28;4.80;;;;;;;9.28;63.70;96415.53;5008989;28;20057;-67
2021/12/13 07:10:51;;;;;;;4.95;4.28;;;;;;;9.58;63.87;96417.41;5009121;28;20033;-63
2021/12/13 07:13:20;;;;;;;6.55;5.80;;;;;;;9.61;63.00;96422.16;5009291;28;20113;-64
2021/12/13 07:15:55;;;;;;;5.70;4.82;;;;;;;9.09;63.98;96397.44;5009335;28;20021;-64
2021/12/13 07:18:29;;;;;;;5.35;4.85;;;;;;;9.76;63.42;96434.66;5008072;28;20038;-65
2021/12/13 07:21:16;;;;;;;8.20;5.78;;;;;;;9.20;63.46;96431.97;5009323;28;20061;-62
2021/12/13 07:23:57;;;;;;;7.53;4.90;;;;;;;8.57;65.75;96421.44;5007851;28;20053;-63
2021/12/13 07:26:44;;;;;;;5.95;5.35;;;;;;;9.11;64.92;96429.03;5009256;28;20102;-63
2021/12/13 07:29:23;;;;;;;7.97;5.05;;;;;;;8.88;66.01;96440.13;5008496;28;20034;-62
2021/12/13 07:32:04;;;;;;;7.32;5.82;;;;;;;8.95;65.62;96433.50;5010904;28;20022;-60
2021/12/13 07:34:30;;;;;;;6.90;5.73;;;;;;;8.68;65.00;96409.00;5013462;28;20539;-63
2021/12/13 07:37:01;;;;;;;7.13;6.43;;;;;;;9.41;63.66;96438.88;5010994;28;20060;-62
2021/12/13 07:39:31;;;;;;;7.65;6.15;;;;;;;9.25;63.77;96451.34;5011815;28;20661;-61
2021/12/13 07:42:06;;;;;;;7.45;5.95;;;;;;;8.70;65.69;96439.53;5012279;28;20068;-70
2021/12/13 07:44:38;;;;;;;11.65;6.72;;;;;;;9.34;64.90;96457.75;5011149;28;20121;-63
2021/12/13 07:47:12;;;;;;;9.40;6.38;;;;;;;9.03;65.25;96450.78;5011886;28;20487;-62
2021/12/13 07:49:43;;;;;;;9.80;7.50;;;;;;;8.93;65.40;96454.19;5012125;28;20408;-68
2021/12/13 07:52:27;;;;;;;9.52;8.10;;;;;;;9.49;64.02;96435.72;5004459;28;20022;-68
2021/12/13 07:54:54;;;;;;;9.80;8.68;;;;;;;10.10;61.77;96414.41;5011995;28;20026;-63
2021/12/13 07:57:29;;;;;;;13.93;8.23;;;;;;;9.89;62.29;96450.06;5012190;28;20033;-61
2021/12/13 07:59:55;;;;;;;12.93;8.15;;;;;;;9.90;62.29;96452.44;5011258;28;20030;-63
2021/12/13 08:02:33;;;;;;;11.32;8.65;;;;;;;10.72;60.90;96457.63;5011679;28;20041;-64
2021/12/13 08:05:12;;;;;;;11.57;8.20;;;;;;;10.14;61.60;96441.28;5012397;28;20571;-64
2021/12/13 08:07:47;;;;;;;13.43;8.23;;;;;;;9.99;61.76;96447.41;5012183;28;20030;-64
2021/12/13 08:10:20;;;;;;;10.57;7.75;;;;;;;9.63;63.72;96458.03;5011276;28;20048;-64
2021/12/13 08:12:51;;;;;;;8.50;7.55;;;;;;;10.56;61.91;96456.09;5011896;28;20030;-65
2021/12/13 08:15:26;;;;;;;8.98;8.05;;;;;;;10.73;61.63;96450.44;5010634;28;20032;-66
2021/12/13 08:18:01;;;;;;;8.82;7.50;;;;;;;11.18;59.87;96454.75;5010060;28;20171;-66
2021/12/13 08:20:33;;;;;;;11.00;8.45;;;;;;;11.57;59.49;96464.63;5011990;28;20109;-64
2021/12/13 08:23:01;;;;;;;14.32;9.40;;;;;;;11.94;58.61;96451.56;5011559;28;20388;-64
2021/12/13 08:25:31;;;;;;;10.20;8.05;;;;;;;11.37;58.35;96463.69;5010646;28;20057;-65
2021/12/13 08:28:18;;;;;;;11.18;8.25;;;;;;;10.44;60.70;96447.59;5008508;28;20100;-64
2021/12/13 08:30:55;;;;;;;8.57;7.65;;;;;;;9.90;62.93;96471.06;5010860;28;20105;-63
2021/12/13 08:33:40;;;;;;;11.63;7.75;;;;;;;10.41;62.05;96456.91;5011273;28;20030;-64
2021/12/13 08:36:14;;;;;;;8.25;7.45;;;;;;;10.52;60.42;96460.34;5004561;28;20533;-63
2021/12/13 08:39:04;;;;;;;10.43;7.22;;;;;;;10.32;61.37;96475.28;5011131;28;20038;-63
2021/12/13 08:41:39;;;;;;;9.93;8.63;;;;;;;11.23;59.80;96460.03;5009937;28;20034;-65
2021/12/13 08:44:10;;;;;;;8.43;7.57;;;;;;;10.28;61.29;96473.44;5010651;28;20037;-64
2021/12/13 08:47:06;;;;;;;6.93;6.22;;;;;;;10.50;61.54;96479.25;5010030;28;20034;-65
2021/12/13 08:49:52;;;;;;;8.48;6.43;;;;;;;10.69;59.79;96484.75;5005873;28;20381;-64
2021/12/13 08:52:21;;;;;;;8.13;6.18;;;;;;;9.96;62.76;96479.03;5005057;28;20022;-63
2021/12/13 08:54:51;;;;;;;7.88;5.57;;;;;;;9.80;62.36;96483.56;5011282;28;20022;-63
2021/12/13 08:57:30;;;;;;;7.40;5.90;;;;;;;9.41;64.45;96486.69;5011154;28;20022;-67
2021/12/13 08:59:57;;;;;;;7.05;6.35;;;;;;;11.21;60.49;96475.50;5010436;28;20041;-67
2021/12/13 09:02:29;;;;;;;13.43;6.97;;;;;;;12.03;58.93;96488.28;5010841;28;20022;-68
2021/12/13 09:05:00;;;;;;;7.72;5.82;;;;;;;12.06;57.91;96491.19;5012037;28;20025;-68
2021/12/13 09:07:27;;;;;;;6.30;5.60;;;;;;;11.54;58.53;96479.28;5009721;28;20064;-67
2021/12/13 09:09:54;;;;;;;6.68;5.97;;;;;;;11.22;58.37;96486.97;5010545;28;20550;-70
2021/12/13 09:12:42;;;;;;;6.03;5.53;;;;;;;12.36;56.90;96471.44;5009682;28;20124;-67
2021/12/13 09:15:22;;;;;;;6.40;5.80;;;;;;;12.57;56.35;96481.91;5011031;28;20026;-68
2021/12/13 09:17:50;;;;;;;6.63;5.88;;;;;;;12.97;55.49;96486.78;5010522;28;20037;-69
2021/12/13 09:20:21;;;;;;;7.68;5.47;;;;;;;13.51;55.01;96485.56;5011152;28;20026;-68
2021/12/13 09:23:24;;;;;;;7.63;5.83;;;;;;;12.39;54.31;96483.44;5010872;28;20026;-68
2021/12/13 09:26:16;;;;;;;6.55;5.20;;;;;;;13.41;53.86;96487.56;5011152;28;20040;-68
2021/12/13 09:28:47;;;;;;;5.68;5.28;;;;;;;13.35;53.77;96468.13;5010739;28;20034;-67
2021/12/13 09:31:24;;;;;;;5.53;5.05;;;;;;;13.22;53.67;96468.88;5009216;28;20026;-67
2021/12/13 09:33:56;;;;;;;8.85;6.22;;;;;;;12.65;54.10;96487.41;5010250;28;20034;-67
2021/12/13 09:36:34;;;;;;;6.20;5.70;;;;;;;12.85;53.60;96493.63;5009667;28;20025;-67
2021/12/13 09:39:29;;;;;;;5.30;4.82;;;;;;;12.55;54.17;96487.53;5010287;28;20053;-67
2021/12/13 09:42:00;;;;;;;7.22;5.20;;;;;;;12.38;54.62;96495.16;5010881;28;20018;-67
2021/12/13 09:44:32;;;;;;;7.30;5.60;;;;;;;12.19;55.11;96490.53;5010872;28;20138;-67
2021/12/13 09:47:17;;;;;;;6.10;5.50;;;;;;;11.80;56.75;96476.44;5009676;28;20034;-66
2021/12/13 09:50:10;;;;;;;7.10;6.43;;;;;;;12.29;55.42;96471.00;5010473;28;20033;-68
2021/12/13 09:53:05;;;;;;;7.93;6.50;;;;;;;12.29;55.80;96467.53;5008612;28;20053;-68
2021/12/13 09:55:42;;;;;;;7.03;6.43;;;;;;;12.42;56.12;96475.63;5010258;28;20084;-68
2021/12/13 09:58:36;;;;;;;9.25;7.20;;;;;;;12.35;55.18;96453.84;5009119;28;20555;-68
2021/12/13 10:01:20;;;;;;;7.47;6.82;;;;;;;12.43;55.90;96471.88;5009973;28;20107;-69
2021/12/13 10:03:55;;;;;;;7.40;6.70;;;;;;;12.87;54.39;96465.53;5009999;28;20728;-70
2021/12/13 10:06:31;;;;;;;7.93;6.30;;;;;;;13.49;52.84;96463.66;5008777;28;20054;-70
2021/12/13 10:09:06;;;;;;;6.50;5.63;;;;;;;12.53;53.81;96473.66;5007698;28;20056;-69
2021/12/13 10:11:39;;;;;;;6.35;5.75;;;;;;;12.89;54.41;96444.66;5008388;28;20369;-69
2021/12/13 10:14:07;;;;;;;6.72;6.13;;;;;;;13.57;52.86;96448.88;5008451;28;20029;-70
2021/12/13 10:16:40;;;;;;;7.15;6.30;;;;;;;14.17;52.38;96448.94;5010033;28;20046;-68
2021/12/13 10:19:14;;;;;;;6.88;6.28;;;;;;;14.59;51.39;96447.16;5008426;28;20160;-68
2021/12/13 10:21:45;;;;;;;7.85;7.15;;;;;;;14.85;50.44;96423.34;5016994;28;20041;-67
2021/12/13 10:24:22;;;;;;;6.97;6.37;;;;;;;15.15;49.61;96432.63;5008409;28;20487;-69
2021/12/13 10:26:52;;;;;;;7.88;7.10;;;;;;;15.34;49.50;96429.78;5009492;28;20723;-70
2021/12/13 10:29:19;;;;;;;9.20;8.40;;;;;;;15.64;48.89;96443.63;5007288;28;20017;-70
2021/12/13 10:31:50;;;;;;;7.93;7.13;;;;;;;15.69;48.69;96444.28;5008003;28;20037;-68
2021/12/13 10:34:20;;;;;;;7.75;6.95;;;;;;;15.81;48.15;96416.91;5009132;28;20026;-68
2021/12/13 10:36:54;;;;;;;10.30;9.30;;;;;;;16.02;47.76;96422.56;5009619;28;20030;-68
2021/12/13 10:39:25;;;;;;;7.03;6.43;;;;;;;16.20;47.56;96444.94;5008286;28;20042;-68
2021/12/13 10:41:54;;;;;;;8.20;7.18;;;;;;;16.14;47.30;96420.13;5009453;28;20115;-68
2021/12/13 10:44:27;;;;;;;8.40;7.60;;;;;;;16.40;47.06;96439.03;5009755;28;20098;-68
2021/12/13 10:46:59;;;;;;;11.32;7.53;;;;;;;16.42;46.69;96436.81;5008137;28;20424;-69
2021/12/13 10:49:27;;;;;;;10.43;7.15;;;;;;;16.37;46.15;96420.84;5008277;28;20464;-68
2021/12/13 10:52:00;;;;;;;8.10;7.40;;;;;;;16.38;46.76;96417.88;5008802;28;20026;-68
2021/12/13 10:54:31;;;;;;;7.82;7.22;;;;;;;16.48;47.02;96440.16;5009392;28;20033;-68
2021/12/13 10:57:05;;;;;;;7.77;7.07;;;;;;;14.84;48.29;96437.78;5008160;28;20056;-68
2021/12/13 10:59:34;;;;;;;7.82;6.93;;;;;;;13.89;51.19;96405.28;5007544;28;20053;-69
2021/12/13 11:02:07;;;;;;;8.18;6.70;;;;;;;12.09;55.90;96426.63;5009149;28;20045;-69
2021/12/13 11:04:42;;;;;;;6.82;6.22;;;;;;;12.44;56.09;96428.13;5008679;28;20030;-69
2021/12/13 11:07:10;;;;;;;7.68;6.82;;;;;;;13.99;53.28;96439.09;5005634;28;20029;-70
2021/12/13 11:09:38;;;;;;;6.70;6.10;;;;;;;14.49;52.13;96431.28;5011158;28;20026;-66
2021/12/13 11:12:29;;;;;;;7.18;6.57;;;;;;;14.86;50.71;96429.47;5011705;28;20026;-67
2021/12/13 11:14:59;;;;;;;6.73;6.13;;;;;;;14.94;50.10;96405.44;5013473;28;20025;-66
2021/12/13 11:17:27;;;;;;;7.60;6.75;;;;;;;13.95;50.69;96424.72;5011744;28;20265;-68
2021/12/13 11:19:57;;;;;;;6.30;5.80;;;;;;;14.65;50.43;96410.34;5011288;28;20068;-70
2021/12/13 11:22:29;;;;;;;7.22;6.63;;;;;;;14.95;49.89;96403.59;5012370;28;20045;-68
2021/12/13 11:25:00;;;;;;;7.32;6.57;;;;;;;15.26;49.21;96422.47;5011297;28;20013;-69
2021/12/13 11:27:33;;;;;;;7.38;6.70;;;;;;;15.38;48.60;96406.63;5011291;28;20034;-69
2021/12/13 11:30:03;;;;;;;7.00;6.40;;;;;;;15.40;48.36;96376.81;5010777;28;20288;-68
2021/12/13 11:32:34;;;;;;;7.70;7.00;;;;;;;15.59;47.06;96407.72;5012669;28;20077;-68
2021/12/13 11:35:15;;;;;;;8.27;7.50;;;;;;;14.82;48.73;96410.53;5011666;28;20033;-67
2021/12/13 11:38:20;;;;;;;7.43;6.72;;;;;;;14.46;49.29;96408.53;5011352;28;20029;-70
2021/12/13 11:41:14;;;;;;;9.15;8.27;;;;;;;14.65;49.74;96380.91;5011056;28;20117;-68
2021/12/13 11:44:15;;;;;;;9.80;8.32;;;;;;;14.52;49.29;96369.09;5013475;28;20042;-69
2021/12/13 11:47:03;;;;;;;8.53;7.73;;;;;;;14.93;50.38;96377.06;5012292;28;20057;-68
2021/12/13 11:50:06;;;;;;;9.95;8.27;;;;;;;15.27;49.18;96402.59;4986705;28;20073;-67
2021/12/13 11:53:09;;;;;;;7.82;7.13;;;;;;;14.73;49.55;96393.56;5010983;28;20487;-67
2021/12/13 11:56:08;;;;;;;8.40;7.60;;;;;;;14.91;49.59;96365.09;4992444;28;20047;-67
2021/12/13 11:58:55;;;;;;;6.97;6.38;;;;;;;14.92;48.30;96399.59;4991000;28;20137;-67
2021/12/13 12:01:53;;;;;;;8.13;7.40;;;;;;;14.93;49.58;96389.69;4991665;28;20022;-69
2021/12/13 12:04:49;;;;;;;9.68;8.77;;;;;;;15.07;49.05;96379.72;5002251;28;20022;-67
2021/12/13 12:07:39;;;;;;;10.13;9.23;;;;;;;15.09;49.13;96386.34;5006144;28;20033;-66
2021/12/13 12:10:21;;;;;;;17.00;11.88;;;;;;;14.37;50.93;96383.53;4991178;28;20025;-66
2021/12/13 12:12:56;;;;;;;21.67;11.52;;;;;;;14.50;49.95;96349.88;4992686;28;20018;-67
2021/12/13 12:15:24;;;;;;;19.25;12.82;;;;;;;14.70;50.14;96367.41;4992839;28;20014;-66
2021/12/13 12:17:51;;;;;;;12.90;11.70;;;;;;;14.64;50.22;96353.34;4991696;28;20034;-67
2021/12/13 12:20:26;;;;;;;25.02;12.25;;;;;;;14.85;49.99;96361.72;5009552;28;20036;-67